In Rescue
 
Open Full Screen Window  High Contrast Mode
Wind Gusting 30 knots
24
March 01, 2024 4:50 PM EST
Weather Information
Wind Direction
  190 °
Wind Speed
  24 kt (28 mph)
Wind Gust
  30 kt (35 mph)
Altimeter
29.85 in
Visibility
10 SM
Temperature
09° C
48° F
Dewpoint
-08° C
18° F
Humidity
29%
Sky Condition
Clear
VFR

METAR KSAW 012150Z AUTO 19024G30KT 10SM CLR 09/M08 A2985 RMK AO2 PK WND 20033/56

FAA Disclaimer: The data displayed is for advisory purposes only and is not to be used for flight planning or operations.